Time;durP1;ratioP1;P1;durP2;ratioP2;P2;SDS_P1;SDS_P2;PMS_P1;PMS_P2;Temp;Humidity;BMP_temperature;BMP_pressure;BME280_temperature;BME280_humidity;BME280_pressure;Samples;Min_cycle;Max_cycle;Signal;HPM_P1;HPM_P2
2021/09/25 00:01:00;;;;;;;7.68;3.15;;;;;;;17.52;83.31;100811.69;5048519;28;20045;-79
2021/09/25 00:03:27;;;;;;;4.97;2.95;;;;;;;17.50;83.47;100816.84;5048247;28;20051;-79
2021/09/25 00:05:54;;;;;;;3.42;2.17;;;;;;;17.49;83.39;100820.03;5048019;28;20477;-79
2021/09/25 00:08:21;;;;;;;4.68;2.30;;;;;;;17.48;83.37;100813.63;5047232;28;20080;-79
2021/09/25 00:10:48;;;;;;;4.55;2.30;;;;;;;17.48;83.62;100813.63;5047959;28;20045;-79
2021/09/25 00:13:14;;;;;;;3.75;2.35;;;;;;;17.50;83.30;100822.44;5046520;28;20044;-79
2021/09/25 00:15:41;;;;;;;3.10;1.83;;;;;;;17.49;83.19;100818.06;5046536;28;20045;-79
2021/09/25 00:18:08;;;;;;;2.03;1.60;;;;;;;17.51;83.43;100810.06;5048006;28;20051;-79
2021/09/25 00:20:37;;;;;;;3.75;2.00;;;;;;;17.50;83.35;100816.84;5044599;28;20496;-79
2021/09/25 00:23:04;;;;;;;2.53;1.60;;;;;;;17.49;83.29;100818.06;5046653;28;20056;-78
2021/09/25 00:25:31;;;;;;;1.65;1.50;;;;;;;17.51;83.25;100831.66;5047596;28;20041;-79
2021/09/25 00:27:58;;;;;;;2.47;1.60;;;;;;;17.49;83.39;100834.84;5062921;28;20037;-78
2021/09/25 00:30:25;;;;;;;2.35;1.80;;;;;;;17.49;83.57;100840.44;5047849;28;20448;-79
2021/09/25 00:32:51;;;;;;;4.75;2.10;;;;;;;17.48;83.03;100836.03;5044419;28;20568;-79
2021/09/25 00:35:19;;;;;;;3.25;2.05;;;;;;;17.48;83.23;100838.81;5046723;28;20053;-79
2021/09/25 00:37:46;;;;;;;2.47;1.65;;;;;;;17.49;83.22;100834.03;5067765;28;20069;-79
2021/09/25 00:40:15;;;;;;;3.15;2.65;;;;;;;17.47;82.92;100831.63;5087776;28;20047;-79
2021/09/25 00:42:42;;;;;;;3.38;2.28;;;;;;;17.45;83.08;100831.22;5086560;28;20054;-79
2021/09/25 00:45:10;;;;;;;3.78;2.47;;;;;;;17.41;83.06;100821.19;5086183;28;20047;-78
2021/09/25 00:47:38;;;;;;;4.25;2.47;;;;;;;17.40;83.21;100823.19;5086000;28;20130;-79
2021/09/25 00:50:06;;;;;;;4.22;2.38;;;;;;;17.41;82.85;100808.00;5085627;28;20046;-79
2021/09/25 00:52:33;;;;;;;4.20;1.95;;;;;;;17.43;82.94;100814.00;5069106;28;20373;-79
2021/09/25 00:55:01;;;;;;;1.98;1.50;;;;;;;17.41;82.74;100812.78;5086399;28;20040;-78
2021/09/25 00:57:28;;;;;;;1.80;1.15;;;;;;;17.40;82.74;100808.38;5087991;28;20045;-79
2021/09/25 00:59:55;;;;;;;1.00;0.73;;;;;;;17.37;82.78;100809.16;5088375;28;20040;-78
2021/09/25 01:02:21;;;;;;;1.35;1.23;;;;;;;17.36;82.82;100816.75;5085603;28;20035;-79
2021/09/25 01:04:49;;;;;;;1.02;0.90;;;;;;;17.36;82.89;100799.97;5087930;28;20036;-79
2021/09/25 01:07:16;;;;;;;1.05;0.82;;;;;;;17.34;82.60;100812.75;5087041;28;20518;-79
2021/09/25 01:09:43;;;;;;;2.00;0.70;;;;;;;17.36;82.56;100802.78;5088485;28;20108;-79
2021/09/25 01:12:10;;;;;;;1.05;0.80;;;;;;;17.31;82.70;100794.75;5087454;28;20566;-78
2021/09/25 01:14:37;;;;;;;0.90;0.60;;;;;;;17.31;82.61;100793.94;5085741;28;20047;-79
2021/09/25 01:17:09;;;;;;;1.23;0.40;;;;;;;17.24;82.61;100789.09;5088198;28;20093;-79
2021/09/25 01:19:37;;;;;;;0.40;0.40;;;;;;;17.25;82.48;100790.69;5091612;28;20042;-79
2021/09/25 01:22:04;;;;;;;1.02;0.50;;;;;;;17.24;82.52;100797.47;5091481;28;20040;-79
2021/09/25 01:24:33;;;;;;;0.50;0.50;;;;;;;17.21;82.49;100792.66;5090555;28;20040;-79
2021/09/25 01:27:01;;;;;;;0.77;0.40;;;;;;;17.21;82.46;100792.66;5090820;28;20040;-79
2021/09/25 01:29:29;;;;;;;0.40;0.40;;;;;;;17.19;82.42;100786.66;5091245;28;20653;-79
2021/09/25 01:31:56;;;;;;;1.00;0.40;;;;;;;17.21;82.61;100780.69;5090180;28;20064;-79
2021/09/25 01:34:23;;;;;;;0.50;0.50;;;;;;;17.21;82.51;100773.06;5091405;28;20028;-79
2021/09/25 01:36:50;;;;;;;0.40;0.40;;;;;;;17.20;82.50;100777.06;5091555;28;20039;-79
2021/09/25 01:39:17;;;;;;;0.65;0.30;;;;;;;17.21;82.48;100781.47;5091488;28;20055;-78
2021/09/25 01:41:44;;;;;;;0.50;0.50;;;;;;;17.22;82.24;100777.47;5090151;28;20052;-79
2021/09/25 01:44:11;;;;;;;0.50;0.50;;;;;;;17.19;82.37;100769.88;5089715;28;20043;-78
2021/09/25 01:46:38;;;;;;;0.60;0.50;;;;;;;17.16;82.30;100770.63;5091113;28;20042;-79
2021/09/25 01:49:05;;;;;;;0.50;0.50;;;;;;;17.15;82.49;100763.44;5091161;28;20040;-79
2021/09/25 01:51:33;;;;;;;0.30;0.30;;;;;;;17.15;82.40;100763.44;5090333;28;20040;-79
2021/09/25 01:54:00;;;;;;;0.73;0.40;;;;;;;17.15;82.47;100763.44;5089757;28;20040;-79
2021/09/25 01:56:27;;;;;;;0.40;0.40;;;;;;;17.13;82.57;100759.44;5087713;28;20139;-79
2021/09/25 01:58:53;;;;;;;0.75;0.50;;;;;;;17.11;82.60;100754.22;5091589;28;20395;-79
2021/09/25 02:01:20;;;;;;;1.52;0.40;;;;;;;17.11;82.60;100751.41;5090769;28;20039;-79
2021/09/25 02:03:47;;;;;;;2.25;0.80;;;;;;;17.08;82.74;100748.63;5091158;28;20155;-79
2021/09/25 02:06:14;;;;;;;0.63;0.63;;;;;;;17.06;82.73;100754.59;5089355;28;20127;-78
2021/09/25 02:08:42;;;;;;;0.45;0.40;;;;;;;17.10;82.57;100751.81;5090209;28;20098;-79
2021/09/25 02:11:08;;;;;;;2.40;0.60;;;;;;;17.11;82.81;100751.41;5091072;28;20068;-79
2021/09/25 02:13:35;;;;;;;0.57;0.50;;;;;;;17.11;82.79;100751.41;5090603;28;20388;-79
2021/09/25 02:16:02;;;;;;;0.50;0.50;;;;;;;17.12;82.60;100746.63;5088951;28;20048;-79
2021/09/25 02:18:29;;;;;;;1.05;0.60;;;;;;;17.15;82.74;100751.44;5090712;28;20044;-79
2021/09/25 02:20:56;;;;;;;0.82;0.50;;;;;;;17.15;82.81;100748.66;5091200;28;20442;-79
2021/09/25 02:23:23;;;;;;;1.00;0.68;;;;;;;17.14;82.92;100744.25;5088197;28;20123;-78
2021/09/25 02:25:50;;;;;;;0.60;0.60;;;;;;;17.18;82.77;100742.28;5090388;28;20051;-78
2021/09/25 02:28:17;;;;;;;0.50;0.50;;;;;;;17.21;82.66;100738.72;5089111;28;20047;-79
2021/09/25 02:30:45;;;;;;;0.90;0.90;;;;;;;17.20;82.49;100743.50;5091083;28;20039;-79
2021/09/25 02:33:12;;;;;;;0.73;0.73;;;;;;;17.18;82.81;100740.31;5090567;28;20055;-79
2021/09/25 02:35:40;;;;;;;0.63;0.50;;;;;;;17.18;82.81;100739.50;5088951;28;20040;-79
2021/09/25 02:38:08;;;;;;;1.88;0.90;;;;;;;17.19;82.64;100741.06;5088776;28;20150;-79
2021/09/25 02:40:35;;;;;;;0.77;0.77;;;;;;;17.19;82.59;100735.47;5090298;28;20039;-79
2021/09/25 02:43:02;;;;;;;0.50;0.50;;;;;;;17.16;82.67;100730.66;5088520;28;20036;-79
2021/09/25 02:45:30;;;;;;;0.77;0.60;;;;;;;17.09;82.92;100728.63;5090422;28;20047;-79
2021/09/25 02:47:56;;;;;;;0.50;0.50;;;;;;;17.07;83.18;100733.81;5090200;28;20036;-79
2021/09/25 02:50:23;;;;;;;1.85;0.60;;;;;;;17.07;83.01;100717.03;5090019;28;20078;-79
2021/09/25 02:52:50;;;;;;;0.30;0.30;;;;;;;17.07;82.43;100728.22;5090724;28;20040;-78
2021/09/25 02:55:18;;;;;;;1.08;0.70;;;;;;;17.01;82.56;100719.41;5091077;28;20040;-78
2021/09/25 02:57:46;;;;;;;1.65;0.32;;;;;;;17.01;82.51;100725.00;5088322;28;20118;-79
2021/09/25 03:00:17;;;;;;;0.47;0.40;;;;;;;16.99;82.81;100720.97;5090118;28;20059;-79
2021/09/25 03:02:44;;;;;;;0.70;0.57;;;;;;;16.99;82.66;100715.38;5090101;28;20042;-79
2021/09/25 03:05:12;;;;;;;0.55;0.45;;;;;;;17.00;82.65;100719.75;5089791;28;20127;-79
2021/09/25 03:07:39;;;;;;;0.75;0.60;;;;;;;16.97;82.42;100717.78;5087238;28;20058;-79
2021/09/25 03:10:07;;;;;;;1.52;0.90;;;;;;;16.98;82.31;100713.78;5088154;28;20044;-79
2021/09/25 03:12:35;;;;;;;2.05;0.82;;;;;;;16.96;82.56;100711.38;5084626;28;20043;-79
2021/09/25 03:15:04;;;;;;;0.75;0.65;;;;;;;16.94;82.50;100707.38;5089932;28;20032;-79
2021/09/25 03:17:31;;;;;;;1.42;1.08;;;;;;;16.92;82.70;100706.94;5089478;28;20044;-79
2021/09/25 03:19:57;;;;;;;1.80;0.90;;;;;;;16.88;82.94;100715.31;5088428;28;20040;-79
2021/09/25 03:22:24;;;;;;;1.95;1.40;;;;;;;16.86;83.09;100705.69;5087653;28;20044;-79
2021/09/25 03:24:51;;;;;;;1.20;1.10;;;;;;;16.84;83.13;100710.84;5088992;28;20070;-79
2021/09/25 03:27:24;;;;;;;1.55;1.33;;;;;;;16.84;82.91;100719.25;5089809;28;20044;-78
2021/09/25 03:29:52;;;;;;;1.83;1.30;;;;;;;16.82;82.89;100719.66;5088534;28;20119;-79
2021/09/25 03:32:18;;;;;;;3.42;1.75;;;;;;;16.81;82.79;100715.22;5088117;28;20058;-79
2021/09/25 03:34:45;;;;;;;2.40;1.67;;;;;;;16.82;83.04;100724.44;5088381;28;20444;-79
2021/09/25 03:37:12;;;;;;;2.15;1.42;;;;;;;16.80;83.24;100718.44;5087646;28;20056;-79
2021/09/25 03:39:38;;;;;;;3.03;1.80;;;;;;;16.81;83.05;100717.25;5088577;28;20048;-79
2021/09/25 03:42:05;;;;;;;4.07;1.75;;;;;;;16.79;83.15;100720.41;5083881;28;20052;-79
2021/09/25 03:44:32;;;;;;;4.50;1.95;;;;;;;16.76;83.00;100712.03;5088846;28;20098;-79
2021/09/25 03:46:59;;;;;;;3.95;2.55;;;;;;;16.73;83.08;100715.59;5088664;28;20117;-79
2021/09/25 03:49:26;;;;;;;4.25;1.83;;;;;;;16.70;83.14;100710.78;5089405;28;20051;-78
2021/09/25 03:51:54;;;;;;;3.40;2.00;;;;;;;16.67;82.96;100715.16;5087460;28;20048;-79
2021/09/25 03:54:21;;;;;;;2.92;2.00;;;;;;;16.65;83.13;100711.94;5088703;28;20040;-79
2021/09/25 03:56:47;;;;;;;2.72;1.70;;;;;;;16.65;83.22;100711.13;5086518;28;20032;-78
2021/09/25 03:59:14;;;;;;;2.80;1.92;;;;;;;16.61;83.24;100704.69;5088604;28;20044;-79
2021/09/25 04:01:41;;;;;;;2.72;1.80;;;;;;;16.63;83.12;100702.31;5088024;28;20114;-79
2021/09/25 04:04:08;;;;;;;2.97;2.20;;;;;;;16.62;83.35;100706.31;5085435;28;20052;-79
2021/09/25 04:06:34;;;;;;;2.42;2.20;;;;;;;16.64;83.23;100709.50;5087588;28;20388;-79
2021/09/25 04:09:01;;;;;;;2.40;2.15;;;;;;;16.64;83.22;100701.94;5088229;28;20043;-79
2021/09/25 04:11:28;;;;;;;3.75;1.98;;;;;;;16.65;83.31;100711.13;5088888;28;20048;-78
2021/09/25 04:13:55;;;;;;;2.20;1.60;;;;;;;16.63;83.21;100705.09;5085901;28;20039;-79
2021/09/25 04:16:23;;;;;;;4.93;2.60;;;;;;;16.65;83.06;100705.53;5088753;28;20036;-79
2021/09/25 04:18:49;;;;;;;4.32;2.75;;;;;;;16.63;83.21;100707.91;5086773;28;20040;-79
2021/09/25 04:21:16;;;;;;;1.90;1.70;;;;;;;16.59;83.63;100712.66;5087895;28;20081;-79
2021/09/25 04:23:43;;;;;;;3.40;1.90;;;;;;;16.58;83.42;100697.06;5088315;28;20064;-79
2021/09/25 04:26:10;;;;;;;3.78;2.17;;;;;;;16.58;83.49;100694.28;5087015;28;20377;-79
2021/09/25 04:28:37;;;;;;;3.90;2.08;;;;;;;16.59;83.45;100695.91;5082559;28;20381;-79
2021/09/25 04:31:04;;;;;;;2.88;2.13;;;;;;;16.61;83.21;100704.69;5087768;28;20488;-79
2021/09/25 04:33:30;;;;;;;2.90;2.20;;;;;;;16.60;83.33;100697.50;5087093;28;20036;-79
2021/09/25 04:35:57;;;;;;;2.63;2.33;;;;;;;16.61;83.34;100694.31;5087457;28;20048;-79
2021/09/25 04:38:24;;;;;;;3.85;2.63;;;;;;;16.63;83.38;100696.72;5088755;28;20095;-79
2021/09/25 04:40:51;;;;;;;4.07;2.72;;;;;;;16.61;83.38;100687.94;5088263;28;20131;-79
2021/09/25 04:43:17;;;;;;;3.80;2.95;;;;;;;16.60;83.47;100686.34;5085546;28;20051;-79
2021/09/25 04:45:44;;;;;;;3.17;2.38;;;;;;;16.60;83.52;100686.34;5087620;28;20032;-79
2021/09/25 04:48:11;;;;;;;3.55;1.85;;;;;;;16.62;83.35;100683.94;5084882;28;20040;-79
2021/09/25 04:50:38;;;;;;;3.95;2.85;;;;;;;16.60;83.35;100687.13;5086516;28;20040;-78
2021/09/25 04:53:06;;;;;;;2.95;2.20;;;;;;;16.61;83.37;100687.94;5086837;28;20114;-79
2021/09/25 04:55:34;;;;;;;3.47;2.17;;;;;;;16.60;83.39;100694.72;5087106;28;20047;-79
2021/09/25 04:58:01;;;;;;;3.13;2.40;;;;;;;16.60;83.39;100694.72;5087594;28;20048;-79
2021/09/25 05:00:28;;;;;;;2.13;1.80;;;;;;;16.62;83.56;100695.13;5085820;28;20381;-79
2021/09/25 05:02:54;;;;;;;3.60;2.38;;;;;;;16.61;83.25;100699.91;5087752;28;20044;-79
2021/09/25 05:05:22;;;;;;;2.88;2.22;;;;;;;16.62;83.34;100701.53;5087463;28;20050;-79
2021/09/25 05:07:49;;;;;;;3.63;2.58;;;;;;;16.63;83.44;100705.09;5085875;28;20051;-79
2021/09/25 05:10:16;;;;;;;4.07;2.70;;;;;;;16.61;83.43;100699.09;5087605;28;20040;-79
2021/09/25 05:12:44;;;;;;;2.75;2.20;;;;;;;16.62;83.47;100700.72;5086882;28;20040;-79
2021/09/25 05:15:12;;;;;;;5.43;2.50;;;;;;;16.63;83.56;100696.72;5086280;28;20044;-79
2021/09/25 05:17:39;;;;;;;5.47;2.75;;;;;;;16.63;83.42;100708.72;5087884;28;20040;-79
2021/09/25 05:20:08;;;;;;;4.63;2.35;;;;;;;16.63;83.61;100697.53;5087362;28;20040;-79
2021/09/25 05:22:35;;;;;;;6.28;2.83;;;;;;;16.66;83.56;100701.53;5085910;28;20048;-78
2021/09/25 05:25:03;;;;;;;3.50;2.30;;;;;;;16.66;83.40;100695.94;5087725;28;20129;-79
2021/09/25 05:27:30;;;;;;;2.95;2.60;;;;;;;16.67;83.28;100686.38;5087894;28;20054;-79
2021/09/25 05:29:57;;;;;;;2.60;2.40;;;;;;;16.66;83.47;100677.19;5087376;28;20043;-79
2021/09/25 05:32:24;;;;;;;5.60;2.65;;;;;;;16.64;83.39;100685.16;5086776;28;20494;-79
2021/09/25 05:34:50;;;;;;;2.83;2.15;;;;;;;16.63;83.37;100683.56;5085351;28;20131;-79
2021/09/25 05:37:17;;;;;;;3.08;2.30;;;;;;;16.62;83.48;100669.97;5086277;28;20060;-79
2021/09/25 05:39:45;;;;;;;2.97;2.25;;;;;;;16.62;83.35;100672.78;5087570;28;20569;-79
2021/09/25 05:42:15;;;;;;;3.28;2.38;;;;;;;16.63;83.31;100677.16;5084454;28;20153;-79
2021/09/25 05:44:44;;;;;;;4.00;2.15;;;;;;;16.64;83.23;100678.75;5086322;28;20039;-79
2021/09/25 05:47:12;;;;;;;3.05;2.20;;;;;;;16.65;83.36;100684.00;5087142;28;20475;-79
2021/09/25 05:49:39;;;;;;;5.30;3.72;;;;;;;16.65;83.31;100683.19;5087739;28;20109;-79
2021/09/25 05:52:08;;;;;;;3.70;3.00;;;;;;;16.65;83.43;100689.56;5085588;28;20043;-79
2021/09/25 05:54:37;;;;;;;3.83;2.40;;;;;;;16.66;83.19;100679.97;5086538;28;20756;-79
2021/09/25 05:57:05;;;;;;;3.45;2.25;;;;;;;16.66;83.30;100679.19;5087178;28;20484;-79
2021/09/25 05:59:32;;;;;;;4.60;2.65;;;;;;;16.64;83.36;100684.34;5087043;28;20083;-79
2021/09/25 06:01:59;;;;;;;4.55;2.65;;;;;;;16.65;83.26;100683.19;5085676;28;20038;-79
2021/09/25 06:04:26;;;;;;;3.22;2.40;;;;;;;16.61;83.38;100682.34;5089621;28;20040;-79
2021/09/25 06:06:54;;;;;;;2.90;2.33;;;;;;;16.60;83.20;100680.75;5089828;28;20562;-79
2021/09/25 06:09:20;;;;;;;3.35;2.33;;;;;;;16.59;83.35;100684.72;5072179;28;20454;-79
2021/09/25 06:11:49;;;;;;;3.53;2.80;;;;;;;16.56;83.27;100683.50;5090872;28;20024;-79
2021/09/25 06:14:16;;;;;;;4.72;3.33;;;;;;;16.55;83.21;100683.91;5091792;28;20055;-78
2021/09/25 06:16:43;;;;;;;4.70;2.80;;;;;;;16.52;83.29;100682.63;5090849;28;20044;-79
2021/09/25 06:19:10;;;;;;;4.13;2.83;;;;;;;16.50;83.60;100681.41;5088880;28;20117;-78
2021/09/25 06:21:37;;;;;;;4.80;3.65;;;;;;;16.49;83.49;100685.41;5090285;28;20040;-79
2021/09/25 06:24:04;;;;;;;4.68;2.90;;;;;;;16.48;83.55;100683.78;5089990;28;20040;-79
2021/09/25 06:26:31;;;;;;;4.28;3.08;;;;;;;16.48;83.53;100686.59;5091234;28;20085;-79
2021/09/25 06:28:58;;;;;;;3.47;2.60;;;;;;;16.44;83.78;100701.31;5089061;28;20036;-79
2021/09/25 06:31:24;;;;;;;4.25;2.95;;;;;;;16.50;83.79;100687.00;5088900;28;20048;-80
2021/09/25 06:33:51;;;;;;;4.43;3.40;;;;;;;16.52;83.77;100695.81;5088812;28;20058;-80
2021/09/25 06:36:18;;;;;;;5.25;3.03;;;;;;;16.53;83.87;100692.66;5086068;28;20069;-80
2021/09/25 06:38:45;;;;;;;4.55;3.03;;;;;;;16.57;83.90;100689.91;5089673;28;20530;-79
2021/09/25 06:41:12;;;;;;;4.93;3.35;;;;;;;16.58;83.76;100683.91;5090249;28;20052;-80
2021/09/25 06:43:38;;;;;;;3.92;2.83;;;;;;;16.60;83.90;100680.75;5089385;28;20054;-80
2021/09/25 06:46:06;;;;;;;6.25;2.95;;;;;;;16.61;83.91;100687.94;5088210;28;20105;-80
2021/09/25 06:48:33;;;;;;;4.28;2.85;;;;;;;16.63;83.96;100686.34;5090073;28;20047;-80
2021/09/25 06:50:59;;;;;;;4.25;2.88;;;;;;;16.67;83.86;100689.97;5059320;28;20481;-80
2021/09/25 06:53:26;;;;;;;7.60;2.63;;;;;;;16.69;83.98;100682.00;5087733;28;20046;-80
2021/09/25 06:55:53;;;;;;;5.78;2.92;;;;;;;16.69;83.91;100684.00;5088951;28;20398;-80
2021/09/25 06:58:20;;;;;;;3.47;2.75;;;;;;;16.71;83.78;100682.41;5086499;28;20739;-80
2021/09/25 07:00:47;;;;;;;4.45;2.70;;;;;;;16.75;83.77;100685.25;5088331;28;20415;-80
2021/09/25 07:03:14;;;;;;;6.43;3.30;;;;;;;16.79;83.77;100684.06;5088261;28;20078;-80
2021/09/25 07:05:41;;;;;;;5.43;2.95;;;;;;;16.84;83.65;100685.69;5089657;28;20046;-79
2021/09/25 07:08:08;;;;;;;6.95;3.35;;;;;;;16.89;83.65;100679.75;5087523;28;20028;-79
2021/09/25 07:10:36;;;;;;;5.10;3.03;;;;;;;16.95;83.63;100679.00;5089493;28;20054;-79
2021/09/25 07:13:04;;;;;;;5.82;3.47;;;;;;;16.99;83.56;100671.44;5089757;28;20040;-79
2021/09/25 07:15:31;;;;;;;5.30;3.22;;;;;;;17.05;83.80;100674.66;5087947;28;20042;-80
2021/09/25 07:17:58;;;;;;;4.75;3.05;;;;;;;17.09;83.38;100669.88;5089477;28;20052;-80
2021/09/25 07:20:25;;;;;;;3.38;2.45;;;;;;;17.13;83.41;100669.91;5090339;28;20489;-80
2021/09/25 07:22:52;;;;;;;2.78;2.30;;;;;;;17.17;83.39;100663.13;5089332;28;20063;-80
2021/09/25 07:25:22;;;;;;;4.13;3.05;;;;;;;17.21;83.15;100660.38;5088741;28;20056;-79
2021/09/25 07:27:50;;;;;;;5.05;2.70;;;;;;;17.22;83.17;100668.34;5085451;28;20040;-80
2021/09/25 07:30:17;;;;;;;3.33;2.33;;;;;;;17.25;82.94;100662.00;5089295;28;20068;-79
2021/09/25 07:32:44;;;;;;;4.70;2.90;;;;;;;17.26;82.68;100657.97;5089151;28;20127;-80
2021/09/25 07:35:13;;;;;;;4.75;2.78;;;;;;;17.29;82.71;100673.97;5080155;28;20090;-80
2021/09/25 07:37:41;;;;;;;4.18;2.85;;;;;;;17.30;82.75;100670.00;5087348;28;20052;-80
2021/09/25 07:40:10;;;;;;;4.75;2.83;;;;;;;17.33;82.67;100666.41;5087198;28;20036;-78
2021/09/25 07:42:37;;;;;;;3.00;2.38;;;;;;;17.32;82.36;100666.78;5087305;28;20044;-79
2021/09/25 07:45:07;;;;;;;4.55;2.28;;;;;;;17.32;82.14;100672.41;5089042;28;20046;-79
2021/09/25 07:47:35;;;;;;;4.78;2.65;;;;;;;17.32;82.23;100666.78;5086800;28;20044;-79
2021/09/25 07:50:04;;;;;;;4.00;2.42;;;;;;;17.35;82.12;100666.81;5088663;28;20543;-79
2021/09/25 07:52:32;;;;;;;3.05;2.00;;;;;;;17.38;82.27;100666.03;5089259;28;20056;-79
2021/09/25 07:54:59;;;;;;;2.33;1.75;;;;;;;17.42;82.12;100661.25;5087794;28;20051;-79
2021/09/25 07:57:26;;;;;;;4.18;1.90;;;;;;;17.42;82.08;100655.66;5102058;28;20141;-80
2021/09/25 07:59:53;;;;;;;1.60;1.30;;;;;;;17.43;82.17;100657.25;5088795;28;20039;-79
2021/09/25 08:02:20;;;;;;;2.40;1.30;;;;;;;17.44;82.15;100656.09;5088749;28;20051;-79
2021/09/25 08:04:47;;;;;;;2.33;1.65;;;;;;;17.45;81.89;100654.88;5088990;28;20051;-80
2021/09/25 08:07:14;;;;;;;5.90;1.80;;;;;;;17.48;82.08;100665.28;5088509;28;20048;-79
2021/09/25 08:09:40;;;;;;;2.28;2.03;;;;;;;17.51;81.93;100669.28;5088621;28;20050;-80
2021/09/25 08:12:10;;;;;;;2.92;1.33;;;;;;;17.57;81.86;100679.75;5089015;28;20134;-79
2021/09/25 08:14:37;;;;;;;2.03;1.77;;;;;;;17.63;81.86;100678.16;5087417;28;20046;-79
2021/09/25 08:17:03;;;;;;;3.40;1.30;;;;;;;17.65;81.56;100674.97;5088725;28;20044;-79
2021/09/25 08:19:35;;;;;;;2.40;1.70;;;;;;;17.70;81.70;100676.59;5088021;28;20493;-79
2021/09/25 08:22:01;;;;;;;2.67;1.40;;;;;;;17.72;81.53;100663.00;5085150;28;20593;-79
2021/09/25 08:24:28;;;;;;;5.32;1.30;;;;;;;17.75;81.51;100670.59;5081938;28;20048;-78
2021/09/25 08:26:56;;;;;;;3.95;1.58;;;;;;;17.74;81.04;100661.41;5085592;28;20051;-79
2021/09/25 08:29:23;;;;;;;3.85;1.33;;;;;;;17.71;81.13;100678.22;5085592;28;20036;-78
2021/09/25 08:31:51;;;;;;;2.50;1.23;;;;;;;17.68;81.18;100673.38;5085045;28;20620;-78
2021/09/25 08:34:18;;;;;;;4.78;1.15;;;;;;;17.68;81.55;100673.38;5085360;28;20047;-78
2021/09/25 08:36:46;;;;;;;3.95;0.85;;;;;;;17.76;81.29;100670.22;5085188;28;20405;-78
2021/09/25 08:39:13;;;;;;;2.63;0.80;;;;;;;17.84;81.36;100665.44;5087422;28;21428;-79
2021/09/25 08:41:41;;;;;;;1.67;0.98;;;;;;;17.95;81.70;100669.06;5068219;28;20541;-78
2021/09/25 08:44:08;;;;;;;5.00;1.30;;;;;;;18.12;81.49;100671.09;5083641;28;20043;-79
2021/09/25 08:46:35;;;;;;;1.98;1.38;;;;;;;18.31;81.60;100661.50;5085727;28;20127;-78
2021/09/25 08:49:04;;;;;;;3.90;1.58;;;;;;;18.51;81.70;100655.13;5086121;28;20047;-79
2021/09/25 08:51:32;;;;;;;3.88;1.95;;;;;;;18.63;81.90;100651.94;5083309;28;20040;-78
2021/09/25 08:53:59;;;;;;;1.70;1.25;;;;;;;18.76;81.43;100667.13;5086849;28;20046;-79
2021/09/25 08:56:27;;;;;;;1.40;0.90;;;;;;;18.91;81.79;100661.50;5079281;28;20629;-79
2021/09/25 08:58:58;;;;;;;1.73;0.90;;;;;;;19.07;81.31;100659.06;5085612;28;20148;-79
2021/09/25 09:01:28;;;;;;;2.22;1.25;;;;;;;19.15;80.87;100658.63;5086144;28;20142;-79
2021/09/25 09:03:56;;;;;;;1.00;0.90;;;;;;;19.18;80.24;100665.44;5077283;28;20454;-79
2021/09/25 09:06:31;;;;;;;2.97;1.27;;;;;;;19.15;78.88;100655.03;5086573;28;20136;-80
2021/09/25 09:09:05;;;;;;;2.30;1.65;;;;;;;19.11;78.88;100662.66;5088080;28;20060;-80
2021/09/25 09:11:32;;;;;;;1.73;1.38;;;;;;;19.06;78.82;100660.28;5085504;28;20387;-78
2021/09/25 09:14:01;;;;;;;2.60;1.77;;;;;;;19.06;78.65;100652.63;5086685;28;20040;-79
2021/09/25 09:16:29;;;;;;;3.05;1.75;;;;;;;19.13;78.86;100655.44;5085346;28;20036;-79
2021/09/25 09:18:58;;;;;;;2.17;1.42;;;;;;;19.23;78.46;100665.03;5087215;28;20127;-78
2021/09/25 09:21:31;;;;;;;4.25;1.40;;;;;;;19.30;78.33;100668.59;5086612;28;20485;-79
2021/09/25 09:24:10;;;;;;;1.67;1.48;;;;;;;19.23;78.04;100668.63;5086637;28;20055;-79
2021/09/25 09:26:38;;;;;;;2.78;1.20;;;;;;;19.13;77.89;100669.47;5083798;28;20036;-79
2021/09/25 09:29:07;;;;;;;1.83;1.60;;;;;;;18.97;78.17;100662.69;5080111;28;20047;-79
2021/09/25 09:31:35;;;;;;;1.85;1.70;;;;;;;18.84;78.02;100670.72;5076279;28;20043;-80
2021/09/25 09:34:06;;;;;;;2.10;1.48;;;;;;;18.77;78.03;100663.13;5081397;28;20048;-79
2021/09/25 09:36:34;;;;;;;1.85;1.75;;;;;;;18.73;78.18;100662.34;5084285;28;20040;-79
2021/09/25 09:39:17;;;;;;;1.60;1.20;;;;;;;18.68;78.06;100665.53;5085952;28;20052;-79
2021/09/25 09:41:58;;;;;;;1.30;1.20;;;;;;;18.78;78.52;100670.34;5090883;28;20040;-79
2021/09/25 09:44:29;;;;;;;2.17;1.80;;;;;;;18.90;78.39;100659.91;5089628;28;20046;-80
2021/09/25 09:46:58;;;;;;;2.55;1.85;;;;;;;19.01;78.18;100660.69;5091218;28;20067;-79
2021/09/25 09:49:29;;;;;;;2.22;1.52;;;;;;;19.13;78.01;100663.06;5089845;28;20044;-81
2021/09/25 09:52:09;;;;;;;1.80;1.10;;;;;;;19.26;77.88;100661.41;5088330;28;20479;-80
2021/09/25 09:54:38;;;;;;;1.73;1.48;;;;;;;19.39;77.68;100666.22;5088687;28;20064;-80
2021/09/25 09:57:17;;;;;;;3.38;1.60;;;;;;;19.74;77.22;100670.88;5086722;28;20050;-80
2021/09/25 09:59:46;;;;;;;1.92;1.33;;;;;;;19.96;76.77;100655.47;5084369;28;20048;-79
2021/09/25 10:02:13;;;;;;;2.13;1.67;;;;;;;20.09;76.50;100652.19;5091774;28;20059;-80
2021/09/25 10:04:41;;;;;;;1.58;1.48;;;;;;;20.24;75.80;100654.53;5089200;28;20059;-78
2021/09/25 10:07:08;;;;;;;2.17;1.30;;;;;;;20.32;75.08;100658.06;5090947;28;20032;-78
2021/09/25 10:09:37;;;;;;;2.03;1.73;;;;;;;20.49;75.04;100657.16;5088345;28;20044;-78
2021/09/25 10:12:10;;;;;;;2.63;1.75;;;;;;;20.59;74.18;100659.88;5087692;28;20068;-77
2021/09/25 10:14:40;;;;;;;2.65;1.40;;;;;;;20.64;74.32;100650.97;5090395;28;20044;-77
2021/09/25 10:17:10;;;;;;;3.47;2.60;;;;;;;20.68;74.06;100645.31;5090976;28;20040;-77
2021/09/25 10:19:38;;;;;;;4.43;2.50;;;;;;;20.57;73.58;100648.22;5101180;27;20736;-77
2021/09/25 10:22:28;;;;;;;3.17;2.55;;;;;;;20.42;72.92;100643.94;5089288;28;20040;-77
2021/09/25 10:24:58;;;;;;;3.63;2.63;;;;;;;20.50;73.21;100644.66;5089355;28;20038;-77
2021/09/25 10:27:37;;;;;;;4.03;2.63;;;;;;;20.57;73.18;100644.63;5088459;28;20044;-78
2021/09/25 10:30:08;;;;;;;4.63;3.67;;;;;;;20.47;72.78;100640.66;5087859;28;20040;-78
2021/09/25 10:32:51;;;;;;;4.18;3.45;;;;;;;20.31;72.63;100642.41;5089449;28;20051;-78
2021/09/25 10:35:19;;;;;;;3.72;3.35;;;;;;;20.11;73.17;100639.31;5087571;28;20052;-78
2021/09/25 10:38:04;;;;;;;7.32;3.35;;;;;;;19.97;73.24;100623.34;5088880;28;20052;-78
2021/09/25 10:40:51;;;;;;;3.88;3.22;;;;;;;19.88;73.31;100634.25;5088699;28;20044;-78
2021/09/25 10:43:26;;;;;;;7.72;3.25;;;;;;;19.81;73.71;100630.69;5089902;28;20055;-79
2021/09/25 10:45:56;;;;;;;4.25;3.75;;;;;;;19.73;73.57;100629.94;5088182;28;20101;-78
2021/09/25 10:48:23;;;;;;;2.95;2.65;;;;;;;19.65;73.72;100627.56;5088636;28;20044;-79
2021/09/25 10:50:59;;;;;;;4.82;2.42;;;;;;;19.63;73.73;100633.59;5069710;28;20450;-79
2021/09/25 10:53:39;;;;;;;2.40;2.15;;;;;;;19.63;73.86;100630.78;5089932;28;20040;-79
2021/09/25 10:56:14;;;;;;;3.47;2.33;;;;;;;19.59;73.64;100630.00;5090935;28;20484;-80
2021/09/25 10:58:41;;;;;;;7.85;4.35;;;;;;;19.54;73.75;100626.84;5088469;28;20044;-79
2021/09/25 11:01:12;;;;;;;2.92;1.85;;;;;;;19.50;73.73;100626.84;5089603;28;20042;-79
2021/09/25 11:03:43;;;;;;;3.77;2.20;;;;;;;19.56;74.17;100625.22;5084327;28;20104;-82
2021/09/25 11:06:26;;;;;;;1.80;1.70;;;;;;;19.51;74.19;100627.66;5087561;28;20114;-77
2021/09/25 11:09:07;;;;;;;3.42;2.30;;;;;;;19.47;74.03;100633.28;5071817;28;20044;-77
2021/09/25 11:11:41;;;;;;;2.05;1.60;;;;;;;19.47;74.08;100622.03;5088803;28;20044;-80
2021/09/25 11:14:13;;;;;;;2.08;1.88;;;;;;;19.55;74.37;100620.81;5089866;28;20123;-78
2021/09/25 11:16:46;;;;;;;1.58;1.45;;;;;;;19.60;74.08;100617.56;5087027;28;20747;-78
2021/09/25 11:19:21;;;;;;;3.72;1.77;;;;;;;19.71;74.05;100615.50;5086345;28;20066;-78
2021/09/25 11:22:14;;;;;;;2.70;1.65;;;;;;;19.80;74.03;100607.41;5087610;28;20044;-78
2021/09/25 11:24:48;;;;;;;1.05;0.95;;;;;;;19.93;73.78;100600.13;5089056;28;20156;-78
2021/09/25 11:27:16;;;;;;;1.63;1.00;;;;;;;20.12;73.75;100603.59;5082857;28;20051;-78
2021/09/25 11:29:55;;;;;;;0.85;0.70;;;;;;;20.26;72.90;100601.47;5088445;28;20046;-79